Latest Weather Observations for Carnarvon

IDW60801

Issued at 8:32 pm WST Sunday 7 February 2016 (issued every 30 minutes, with the page automatically refreshed every 10 minutes)

About weather observations | Map of weather stations | Latest weather observations for WA | Other Formats
Station Details ID: 006011 Name: CARNARVON AIRPORT Lat: -24.89 Lon: 113.67 Height: 4.0 m
Data from the previous 72 hours. | See also: Recent months at Carnarvon
Date/Time
WST
Temp
°C
App
Temp
°C
Dew
Point
Rel
Hum
%
Delta-T
°C
Wind Press
QNH
hPa
Press
MSL
hPa
Rain
since 9 am
mm
Dir
 
Spd
km/h
Gust
km/h
Spd
kts
Gust
kts
07/08:30pm 27.1 28.3 22.2 74 3.3 SW 19 22 10 12 1010.3 - 0.0
07/08:00pm 27.5 28.4 22.0 72 3.7 SSW 20 28 11 15 1009.9 - 0.0
07/07:30pm 27.7 27.5 22.1 71 3.8 SSW 26 33 14 18 1009.0 - 0.0
07/07:00pm 28.1 28.8 22.3 70 3.9 SW 22 28 12 15 1008.6 - 0.0
07/06:30pm 28.7 27.9 21.7 66 4.7 SSW 28 35 15 19 1008.2 - 0.0
07/06:00pm 29.6 28.2 21.1 60 5.7 SSW 30 41 16 22 1007.8 1007.8 0.0
07/05:30pm 31.0 29.1 21.0 55 6.7 SSW 32 43 17 23 1007.5 - 0.0
07/05:00pm 32.4 30.9 20.2 48 8.1 SSW 28 37 15 20 1007.3 - 0.0
07/04:30pm 32.3 30.1 19.6 47 8.4 SSW 30 41 16 22 1007.3 - 0.0
07/04:00pm 32.8 30.6 19.6 45 8.7 SSW 30 39 16 21 1007.3 - 0.0
07/03:30pm 34.4 31.6 18.1 38 10.6 SSW 30 37 16 20 1007.4 - 0.0
07/03:00pm 34.9 32.1 17.4 35 11.3 SSW 28 35 15 19 1007.5 1007.5 0.0
07/02:30pm 34.5 31.5 17.8 37 10.8 SSW 30 37 16 20 1007.7 - 0.0
07/02:00pm 35.0 32.0 16.9 34 11.6 SSW 28 39 15 21 1007.8 - 0.0
07/01:30pm 34.6 32.4 18.6 38 10.5 SSW 28 33 15 18 1007.9 - 0.0
07/01:00pm 36.1 32.4 15.0 28 13.2 SSW 28 35 15 19 1008.2 - 0.0
07/12:30pm 35.0 33.6 18.7 38 10.7 SSW 24 28 13 15 1008.5 - 0.0
07/12:00pm 37.2 36.1 17.7 31 12.7 SSW 20 26 11 14 1008.7 1008.7 0.0
07/11:55am 37.1 35.7 17.1 30 12.9 SW 20 22 11 12 1008.7 - 0.0
07/11:30am 42.5 37.7 -2.3 6 22.4 E 13 17 7 9 1008.9 - 0.0
07/11:00am 41.8 35.8 -1.4 7 21.8 ENE 20 35 11 19 1009.1 - 0.0
07/10:30am 41.3 35.7 0.1 8 21.2 ENE 19 24 10 13 1009.3 - 0.0
07/10:00am 40.5 34.8 0.5 8 20.6 E 20 28 11 15 1009.4 - 0.0
07/09:30am 39.1 33.1 1.1 9 19.6 E 22 28 12 15 1009.6 - 0.0
07/09:00am 37.1 31.0 2.6 11 18.0 E 24 33 13 18 1009.6 1009.6 0.0
07/08:30am 33.2 28.0 5.5 17 14.8 E 22 30 12 16 1009.7 - 0.0
07/08:00am 30.9 26.9 8.9 25 12.3 ESE 20 28 11 15 1009.7 - 0.0
07/07:30am 27.0 25.3 14.7 47 7.4 SSE 17 22 9 12 1009.5 - 0.0
07/07:00am 24.6 24.6 17.2 63 4.6 SSE 13 17 7 9 1009.5 - 0.0
07/06:30am 23.4 23.9 17.4 69 3.7 SSE 11 15 6 8 1009.2 - 0.0
07/06:00am 23.8 23.2 17.5 68 3.9 SSE 17 20 9 11 1008.9 1008.9 0.0
07/05:30am 24.3 23.7 17.6 66 4.2 SSE 17 26 9 14 1008.6 - 0.0
07/05:00am 24.4 24.3 17.9 67 4.1 SSE 15 20 8 11 1008.4 - 0.0
07/04:30am 25.1 24.2 18.1 65 4.4 SSE 20 24 11 13 1008.0 - 0.0
07/04:00am 25.5 24.0 18.6 65 4.4 SSE 24 32 13 17 1007.9 - 0.0
07/03:30am 25.6 23.6 18.2 63 4.7 SSE 26 35 14 19 1007.8 - 0.0
07/03:00am 25.8 23.2 17.9 61 5.0 SSE 28 39 15 21 1007.8 1007.8 0.0
07/02:30am 26.0 23.3 17.6 60 5.3 SSE 28 37 15 20 1008.0 - 0.0
07/02:00am 26.5 22.9 17.2 56 5.8 SSE 32 43 17 23 1008.1 - 0.0
07/01:30am 26.6 23.8 17.2 56 5.9 SSE 28 37 15 20 1008.4 - 0.0
07/01:00am 26.4 23.7 18.4 61 5.1 S 30 39 16 21 1008.5 - 0.0
07/12:30am 26.6 22.6 18.4 60 5.2 S 37 48 20 26 1008.8 - 0.0
07/12:00am 26.7 23.3 18.2 59 5.4 SSE 33 46 18 25 1009.1 1009.1 0.0
 
Date/Time
WST
Temp
°C
App
Temp
°C
Dew
Point
Rel
Hum
%
Delta-T
°C
Wind Press
QNH
hPa
Press
MSL
hPa
Rain
since 9 am
mm
Dir
 
Spd
km/h
Gust
km/h
Spd
kts
Gust
kts
06/11:30pm 26.8 23.6 18.1 59 5.5 SSE 32 39 17 21 1009.3 - 0.0
06/11:00pm 26.9 23.6 18.4 59 5.4 S 33 43 18 23 1009.5 - 0.0
06/10:30pm 27.2 23.2 17.7 56 6.0 S 35 46 19 25 1009.6 - 0.0
06/10:00pm 27.3 23.9 17.8 56 6.0 S 32 43 17 23 1009.7 - 0.0
06/09:30pm 27.4 24.2 18.1 57 5.9 S 32 46 17 25 1009.6 - 0.0
06/09:00pm 27.6 24.2 17.8 55 6.2 S 32 44 17 24 1009.4 1009.4 0.0
06/08:30pm 27.8 25.3 19.8 61 5.2 S 32 43 17 23 1009.3 - 0.0
06/08:00pm 27.8 25.7 21.0 66 4.5 S 33 46 18 25 1008.8 - 0.0
06/07:30pm 28.0 26.0 21.2 66 4.5 S 33 46 18 25 1008.3 - 0.0
06/07:00pm 28.3 25.9 21.1 65 4.8 S 35 46 19 25 1007.9 - 0.0
06/06:30pm 28.8 25.8 20.6 61 5.4 S 37 50 20 27 1007.5 - 0.0
06/06:00pm 28.9 25.2 19.9 58 5.9 S 39 52 21 28 1007.1 1007.1 0.0
06/05:30pm 29.7 26.2 20.3 57 6.2 S 39 50 21 27 1007.0 - 0.0
06/05:00pm 30.2 26.8 20.7 56 6.3 SSW 39 52 21 28 1006.9 - 0.0
06/04:30pm 31.1 28.6 21.6 57 6.4 SSW 37 52 20 28 1006.9 - 0.0
06/04:00pm 32.9 30.0 19.2 44 9.0 SSW 33 44 18 24 1007.0 - 0.0
06/03:30pm 33.0 30.7 20.1 46 8.6 S 32 41 17 22 1007.2 - 0.0
06/03:00pm 32.2 29.6 19.8 48 8.2 S 33 41 18 22 1007.3 1007.3 0.0
06/02:30pm 32.3 29.7 19.4 46 8.5 SSW 32 39 17 21 1007.5 - 0.0
06/02:00pm 34.4 31.2 18.1 38 10.6 S 32 39 17 21 1007.9 - 0.0
06/01:30pm 33.3 30.3 17.8 39 10.0 S 30 37 16 20 1008.1 - 0.0
06/01:00pm 33.3 29.9 17.6 39 10.1 S 32 37 17 20 1008.3 - 0.0
06/12:30pm 32.9 29.7 18.2 41 9.5 S 32 39 17 21 1008.5 - 0.0
06/12:00pm 31.3 28.7 19.6 49 7.7 S 32 39 17 21 1008.8 1008.8 0.0
06/11:30am 31.5 30.1 20.4 51 7.4 S 28 35 15 19 1009.3 - 0.0
06/11:00am 31.3 30.0 20.6 53 7.1 S 28 35 15 19 1009.8 - 0.0
06/10:30am 32.6 31.6 19.7 46 8.5 S 24 32 13 17 1010.1 - 0.0
06/10:00am 33.0 31.7 18.2 41 9.6 S 22 28 12 15 1010.2 - 0.0
06/09:30am 34.0 31.2 12.7 27 12.8 SSE 19 24 10 13 1010.4 - 0.0
06/09:00am 32.2 29.3 13.0 31 11.5 SSE 20 26 11 14 1010.4 1010.4 0.0
06/08:30am 31.5 28.6 12.9 32 11.1 SSE 20 28 11 15 1010.2 - 0.0
06/08:00am 29.1 26.5 14.8 41 8.7 SSE 22 28 12 15 1010.0 - 0.0
06/07:30am 27.4 25.1 16.6 51 6.7 SSE 24 32 13 17 1009.7 - 0.0
06/07:00am 25.9 24.8 17.2 58 5.4 SSE 19 24 10 13 1009.7 - 0.0
06/06:30am 24.8 23.0 15.9 57 5.4 SSE 20 26 11 14 1009.2 - 0.0
06/06:00am 24.2 22.6 16.0 60 5.0 SSE 19 28 10 15 1008.9 1008.9 0.0
06/05:30am 24.3 23.3 16.5 61 4.8 SSE 17 20 9 11 1008.6 - 0.0
06/05:00am 24.4 23.2 16.2 60 5.0 SSE 17 20 9 11 1008.1 - 0.0
06/04:30am 25.1 23.5 16.1 57 5.5 SSE 19 24 10 13 1008.0 - 0.0
06/04:00am 25.6 23.8 16.0 55 5.9 SSE 20 28 11 15 1007.9 - 0.0
06/03:30am 26.1 22.9 15.4 51 6.5 SSE 26 32 14 17 1007.6 - 0.0
06/03:00am 26.2 23.5 15.5 51 6.5 SSE 24 32 13 17 1007.7 1007.7 0.0
06/02:30am 26.2 23.7 16.1 53 6.2 SSE 24 32 13 17 1008.0 - 0.0
06/02:00am 26.8 22.5 15.3 49 7.0 SSE 32 41 17 22 1008.0 - 0.0
06/01:30am 27.2 22.6 14.6 46 7.6 SSE 32 43 17 23 1008.1 - 0.0
06/01:00am 27.4 22.8 14.6 45 7.7 SSE 32 43 17 23 1008.4 - 0.0
06/12:30am 27.3 23.0 15.3 48 7.3 SSE 32 43 17 23 1008.6 - 0.0
06/12:00am 27.3 22.7 15.1 47 7.4 S 33 44 18 24 1008.8 1008.8 0.0
 
Date/Time
WST
Temp
°C
App
Temp
°C
Dew
Point
Rel
Hum
%
Delta-T
°C
Wind Press
QNH
hPa
Press
MSL
hPa
Rain
since 9 am
mm
Dir
 
Spd
km/h
Gust
km/h
Spd
kts
Gust
kts
05/11:30pm 27.1 23.2 15.5 49 7.1 S 30 39 16 21 1009.2 - 0.0
05/11:00pm 27.3 22.6 15.9 49 7.0 S 35 43 19 23 1009.2 - 0.0
05/10:30pm 27.6 22.7 15.3 47 7.5 S 35 43 19 23 1009.2 - 0.0
05/10:00pm 27.7 23.5 15.8 48 7.3 S 32 46 17 25 1009.2 - 0.0
05/09:30pm 28.3 23.4 15.4 45 7.9 S 35 46 19 25 1009.4 - 0.0
05/09:00pm 29.1 23.8 15.4 43 8.4 S 37 46 20 25 1009.0 1009.0 0.0
05/08:30pm 29.0 24.0 17.1 48 7.5 S 39 50 21 27 1008.7 - 0.0
05/08:00pm 29.8 24.8 17.1 46 8.0 S 39 50 21 27 1008.3 - 0.0
05/07:30pm 30.6 26.3 15.8 40 9.2 S 33 41 18 22 1007.9 - 0.0
05/07:00pm 31.2 27.0 15.6 39 9.7 S 32 43 17 23 1007.6 - 0.0
05/06:30pm 31.3 27.5 16.7 41 9.2 S 32 41 17 22 1007.4 - 0.0
05/06:00pm 32.3 28.8 15.6 36 10.4 SSW 28 37 15 20 1007.3 1007.3 0.0
05/05:30pm 32.6 29.3 16.9 39 10.0 SSW 30 37 16 20 1007.2 - 0.0
05/05:00pm 33.1 30.1 16.7 37 10.4 SSW 28 35 15 19 1007.3 - 0.0
05/04:30pm 32.2 29.3 17.9 42 9.2 SSW 30 39 16 21 1007.3 - 0.0
05/04:00pm 32.1 29.8 19.3 46 8.4 SSW 30 37 16 20 1007.4 - 0.0
05/03:30pm 34.0 29.7 15.9 33 11.4 S 33 41 18 22 1007.4 - 0.0
05/03:00pm 34.5 30.7 16.6 34 11.4 S 32 39 17 21 1007.5 1007.5 0.0
05/02:30pm 34.3 31.7 17.8 37 10.7 S 28 35 15 19 1007.6 - 0.0
05/02:00pm 33.5 31.2 18.5 41 9.8 S 28 37 15 20 1007.8 - 0.0
05/01:30pm 34.1 31.7 18.3 39 10.3 SSW 28 35 15 19 1008.1 - 0.0
05/01:00pm 33.1 30.5 17.7 40 9.9 SSW 28 35 15 19 1008.3 - 0.0
05/12:30pm 33.7 33.0 19.5 43 9.4 SSW 22 28 12 15 1008.6 - 0.0
05/12:00pm 34.0 31.9 18.1 39 10.3 SSW 26 30 14 16 1008.9 1008.9 0.0
05/11:30am 34.2 32.4 15.9 33 11.5 SSW 20 28 11 15 1009.2 - 0.0
05/11:00am 35.5 33.4 15.2 29 12.7 SSW 20 28 11 15 1009.5 - 0.0
05/10:30am 39.5 34.8 3.1 10 19.4 ENE 17 26 9 14 1009.8 - 0.0
05/10:00am 38.7 34.1 3.8 11 18.7 ENE 17 28 9 15 1010.0 - 0.0
05/09:30am 37.6 32.7 4.2 12 17.9 ENE 19 26 10 14 1010.1 - 0.0
05/09:00am 35.8 30.6 3.8 13 16.9 E 20 28 11 15 1010.2 1010.2 0.0
05/08:30am 32.7 29.4 6.5 19 14.2 E 13 17 7 9 1010.2 - 0.0
05/08:00am 29.5 27.4 11.3 32 10.5 ESE 13 17 7 9 1010.3 - 0.0
05/07:30am 26.0 26.5 16.6 56 5.8 SSE 9 11 5 6 1010.4 - 0.0
05/07:00am 24.0 25.3 18.5 71 3.5 S 9 11 5 6 1010.2 - 0.0
05/06:30am 21.4 21.8 17.3 77 2.5 S 11 13 6 7 1010.0 - 0.0
05/06:00am 21.0 21.8 17.4 80 2.2 SSE 9 11 5 6 1009.5 1009.5 0.0
05/05:30am 21.2 22.1 17.6 80 2.2 SSE 9 9 5 5 1009.2 - 0.0
05/05:00am 22.0 22.3 18.0 78 2.5 SE 13 15 7 8 1008.9 - 0.0
05/04:30am 22.4 23.2 18.2 77 2.6 ENE 11 13 6 7 1008.7 - 0.0
05/04:00am 22.5 22.8 17.8 75 2.9 NNE 13 17 7 9 1008.5 - 0.0
05/03:30am 24.2 24.6 18.9 72 3.4 SSE 15 20 8 11 1008.5 - 0.0
05/03:00am 24.3 24.7 19.0 72 3.4 SSE 15 19 8 10 1008.7 1008.7 0.0
05/02:30am 24.8 24.8 19.0 70 3.7 SSE 17 22 9 12 1008.8 - 0.0
05/02:00am 25.0 24.9 18.7 68 4.0 S 17 20 9 11 1009.0 - 0.0
05/01:30am 25.4 25.5 18.3 65 4.5 S 15 22 8 12 1009.2 - 0.0
05/01:00am 26.2 24.5 17.1 57 5.7 SSE 22 30 12 16 1009.5 - 0.0
05/12:30am 26.4 24.1 16.7 55 6.0 S 24 28 13 15 1009.7 - 0.0
05/12:00am 26.7 24.8 16.7 54 6.2 S 22 30 12 16 1009.9 1009.9 0.0
 
Date/Time
WST
Temp
°C
App
Temp
°C
Dew
Point
Rel
Hum
%
Delta-T
°C
Wind Press
QNH
hPa
Press
MSL
hPa
Rain
since 9 am
mm
Dir
 
Spd
km/h
Gust
km/h
Spd
kts
Gust
kts
04/11:30pm 26.9 24.0 16.2 52 6.6 S 26 33 14 18 1009.9 - 0.0
04/11:00pm 27.4 23.6 14.8 46 7.6 SSE 28 43 15 23 1010.0 - 0.0
04/10:30pm 27.7 23.3 12.9 40 8.7 SSE 28 37 15 20 1010.1 - 0.0
04/10:00pm 27.7 24.6 14.6 44 7.9 S 24 32 13 17 1010.2 - 0.0
04/09:30pm 28.4 24.7 13.8 40 8.7 S 26 35 14 19 1010.0 - 0.0
04/09:00pm 28.3 27.0 17.2 51 7.0 S 20 28 11 15 1009.9 1009.9 0.0

Other Formats:

Comma delimited format used in spreadsheet applications
http://www.bom.gov.au/fwo/IDW60801/IDW60801.94300.axf

JavaScript Object Notation format (JSON) in row-major order
http://www.bom.gov.au/fwo/IDW60801/IDW60801.94300.json